Ann Arbor, MI

10:52 PM EDT on September 02, 2014 (GMT -0400)
Ann Arbor Municipal | Change Station
CLOSE
Current Station
Airport
Location: Ann Arbor,
Elevation: 837 ft
Nearby Weather Stations

Elev 837 ft 42.22 °N, 83.74 °W | Updated 36 minutes ago

Clear
Clear
61 °F
Feels Like 61 °F
N
0
Wind Variable Wind from North

Today
High -- | Low -- °F
--% Chance of Precip.
Yesterday
High -- | Low -- °F
Precip. -- in
7:01 AM 8:07 PM
First Quarter, 57% visible
Pressure 29.94 in
Visibility 7.0 miles
Clouds Clear
Dew Point 58 °F
Humidity 90%
Rainfall 0.00 in
Snow Depth Not available.
UV 0 out of 12
Pollen 7.10 out of 12
Ozone Good
PM2.5 Moderate
Flu Activity Not available.
SPECI KARB 030216Z AUTO 00000KT 7SM CLR 16/14 A2994 RMK AO2 T01610144

More Conditions Fewer Conditions

Pressure 29.94 in
Visibility 7.0 miles
Clouds Clear
Dew Point 58 °F
Humidity 90%
Rainfall 0.00 in
Snow Depth Not available.
UV 0 out of 12
Pollen 7.10 out of 12
Ozone Good
PM2.5 Moderate
Flu Activity Not available.
SPECI KARB 030216Z AUTO 00000KT 7SM CLR 16/14 A2994 RMK AO2 T01610144

More Conditions Fewer Conditions

10-Day Weather Forecast

Almanac

Astronomy

Sep. 02, 2014 Rise Set
Actual Time 7:01 AM EDT 8:07 PM EDT
Civil Twilight 6:32 AM EDT 8:36 PM EDT
Nautical Twilight 5:58 AM EDT 9:10 PM EDT
Astronomical Twilight 5:22 AM EDT 9:46 PM EDT
Moon 2:52 PM EDT (9/2) 12:01 AM EDT (9/2)
Length of Visible Light 14h 03m
Length of Day
13h 05m
Tomorrow will be 2m 46s shorter.
First Quarter, 57% of the Moon is Illuminated
Today
First Quarter
Sep 8
Full
Sep 15
Last Quarter
Sep 24
New
Oct 1
First Quarter

Today's Extremes

State Highs State Lows

Community

WunderPhotos

Upload Photos

1,749,845 photos uploaded!

Nearby

Air Quality

  Air Quality AQ Index Pollutant
Yesterday Good
PM2.5
Yesterday Good
OZONE
Current Moderate
PM2.5
Current Good
OZONE
Tuesday Good
OZONE
Tuesday Good
PM2.5
Wednesday Moderate
PM2.5
Wednesday Good
OZONE
Thursday Moderate
PM2.5
Thursday Good
OZONE
Friday Moderate
PM2.5
Friday Good
OZONE
Saturday Good
OZONE
Saturday Good
PM2.5
Sunday Good
OZONE
Sunday Good
PM2.5

Snow Depth

Station Depth Elevation
No new snow has been reported.

Earthquake Activity

City Distance Mag. Time & Date
No recent earthquake activity has been reported nearby.
Minimum magnitude displayed is 2.5.

Coastal Water Temperatures

Place Temperature
No Stations Reporting

Nearby Weather Stations